sensor_id;sensor_type;location;lat;lon;timestamp;P1;durP1;ratioP1;P2;durP2;ratioP2
55469;SDS011;41334;47.872;16.384;2023-04-24T00:02:59;4.57;;;1.45;;
55469;SDS011;41334;47.872;16.384;2023-04-24T00:08:01;2.45;;;1.35;;
55469;SDS011;41334;47.872;16.384;2023-04-24T00:13:03;4.05;;;1.75;;
55469;SDS011;41334;47.872;16.384;2023-04-24T00:18:05;2.85;;;1.52;;
55469;SDS011;41334;47.872;16.384;2023-04-24T00:23:07;2.45;;;1.35;;
55469;SDS011;41334;47.872;16.384;2023-04-24T00:28:09;3.28;;;1.70;;
55469;SDS011;41334;47.872;16.384;2023-04-24T00:33:11;3.22;;;1.35;;
55469;SDS011;41334;47.872;16.384;2023-04-24T00:38:13;5.00;;;1.90;;
55469;SDS011;41334;47.872;16.384;2023-04-24T00:43:16;5.00;;;1.85;;
55469;SDS011;41334;47.872;16.384;2023-04-24T00:48:18;4.47;;;1.73;;
55469;SDS011;41334;47.872;16.384;2023-04-24T00:53:21;3.58;;;1.33;;
55469;SDS011;41334;47.872;16.384;2023-04-24T00:58:23;2.40;;;1.52;;
55469;SDS011;41334;47.872;16.384;2023-04-24T01:03:27;3.67;;;1.83;;
55469;SDS011;41334;47.872;16.384;2023-04-24T01:08:32;4.10;;;1.92;;
55469;SDS011;41334;47.872;16.384;2023-04-24T01:13:37;3.80;;;2.60;;
55469;SDS011;41334;47.872;16.384;2023-04-24T01:18:39;3.08;;;1.77;;
55469;SDS011;41334;47.872;16.384;2023-04-24T01:23:41;3.97;;;1.77;;
55469;SDS011;41334;47.872;16.384;2023-04-24T01:28:44;5.05;;;1.92;;
55469;SDS011;41334;47.872;16.384;2023-04-24T01:33:46;5.63;;;1.67;;
55469;SDS011;41334;47.872;16.384;2023-04-24T01:38:48;3.88;;;1.60;;
55469;SDS011;41334;47.872;16.384;2023-04-24T01:43:50;2.22;;;1.15;;
55469;SDS011;41334;47.872;16.384;2023-04-24T01:48:53;2.22;;;1.42;;
55469;SDS011;41334;47.872;16.384;2023-04-24T01:53:56;2.45;;;1.10;;
55469;SDS011;41334;47.872;16.384;2023-04-24T01:58:58;3.45;;;1.60;;
55469;SDS011;41334;47.872;16.384;2023-04-24T02:04:02;2.85;;;1.35;;
55469;SDS011;41334;47.872;16.384;2023-04-24T02:09:05;2.83;;;1.45;;
55469;SDS011;41334;47.872;16.384;2023-04-24T02:14:08;2.17;;;1.23;;
55469;SDS011;41334;47.872;16.384;2023-04-24T02:19:13;3.60;;;1.45;;
55469;SDS011;41334;47.872;16.384;2023-04-24T02:24:15;4.00;;;1.63;;
55469;SDS011;41334;47.872;16.384;2023-04-24T02:29:17;2.15;;;1.38;;
55469;SDS011;41334;47.872;16.384;2023-04-24T02:34:19;2.58;;;1.42;;
55469;SDS011;41334;47.872;16.384;2023-04-24T02:39:21;3.10;;;1.58;;
55469;SDS011;41334;47.872;16.384;2023-04-24T02:44:23;2.97;;;1.48;;
55469;SDS011;41334;47.872;16.384;2023-04-24T02:49:24;3.38;;;1.67;;
55469;SDS011;41334;47.872;16.384;2023-04-24T02:54:27;2.00;;;1.17;;
55469;SDS011;41334;47.872;16.384;2023-04-24T02:59:29;2.38;;;1.23;;
55469;SDS011;41334;47.872;16.384;2023-04-24T03:04:31;2.20;;;1.13;;
55469;SDS011;41334;47.872;16.384;2023-04-24T03:09:33;2.15;;;1.17;;
55469;SDS011;41334;47.872;16.384;2023-04-24T03:14:35;2.80;;;1.40;;
55469;SDS011;41334;47.872;16.384;2023-04-24T03:19:37;5.40;;;1.52;;
55469;SDS011;41334;47.872;16.384;2023-04-24T03:24:43;3.65;;;1.50;;
55469;SDS011;41334;47.872;16.384;2023-04-24T03:29:49;2.90;;;1.50;;
55469;SDS011;41334;47.872;16.384;2023-04-24T03:34:57;2.95;;;0.98;;
55469;SDS011;41334;47.872;16.384;2023-04-24T03:39:59;2.15;;;1.30;;
55469;SDS011;41334;47.872;16.384;2023-04-24T03:45:02;3.97;;;1.63;;
55469;SDS011;41334;47.872;16.384;2023-04-24T03:50:08;2.97;;;1.13;;
55469;SDS011;41334;47.872;16.384;2023-04-24T03:55:14;2.50;;;1.25;;
55469;SDS011;41334;47.872;16.384;2023-04-24T04:00:21;3.38;;;1.20;;
55469;SDS011;41334;47.872;16.384;2023-04-24T04:05:32;1.60;;;0.85;;
55469;SDS011;41334;47.872;16.384;2023-04-24T04:10:34;2.53;;;1.40;;
55469;SDS011;41334;47.872;16.384;2023-04-24T04:15:38;2.78;;;1.40;;
55469;SDS011;41334;47.872;16.384;2023-04-24T04:20:42;1.75;;;1.10;;
55469;SDS011;41334;47.872;16.384;2023-04-24T04:25:47;2.42;;;1.27;;
55469;SDS011;41334;47.872;16.384;2023-04-24T04:30:51;2.75;;;1.25;;
55469;SDS011;41334;47.872;16.384;2023-04-24T04:35:57;5.03;;;1.52;;
55469;SDS011;41334;47.872;16.384;2023-04-24T04:41:01;2.92;;;1.20;;
55469;SDS011;41334;47.872;16.384;2023-04-24T04:46:07;2.47;;;1.33;;
55469;SDS011;41334;47.872;16.384;2023-04-24T04:51:32;2.22;;;1.23;;
55469;SDS011;41334;47.872;16.384;2023-04-24T04:56:34;2.67;;;1.50;;
55469;SDS011;41334;47.872;16.384;2023-04-24T05:01:37;2.47;;;1.40;;
55469;SDS011;41334;47.872;16.384;2023-04-24T05:06:41;2.45;;;1.30;;
55469;SDS011;41334;47.872;16.384;2023-04-24T05:11:43;2.83;;;1.60;;
55469;SDS011;41334;47.872;16.384;2023-04-24T05:16:46;2.92;;;1.38;;
55469;SDS011;41334;47.872;16.384;2023-04-24T05:21:50;2.05;;;1.27;;
55469;SDS011;41334;47.872;16.384;2023-04-24T05:26:52;2.50;;;1.55;;
55469;SDS011;41334;47.872;16.384;2023-04-24T05:32:01;1.65;;;1.10;;
55469;SDS011;41334;47.872;16.384;2023-04-24T05:37:05;2.30;;;1.50;;
55469;SDS011;41334;47.872;16.384;2023-04-24T05:42:12;3.45;;;1.85;;
55469;SDS011;41334;47.872;16.384;2023-04-24T05:47:14;3.60;;;1.63;;
55469;SDS011;41334;47.872;16.384;2023-04-24T05:52:16;3.47;;;1.48;;
55469;SDS011;41334;47.872;16.384;2023-04-24T05:57:19;2.97;;;1.55;;
55469;SDS011;41334;47.872;16.384;2023-04-24T06:02:27;3.60;;;1.48;;
55469;SDS011;41334;47.872;16.384;2023-04-24T06:07:34;2.35;;;1.45;;
55469;SDS011;41334;47.872;16.384;2023-04-24T06:12:39;3.03;;;1.45;;
55469;SDS011;41334;47.872;16.384;2023-04-24T06:17:50;4.65;;;1.50;;
55469;SDS011;41334;47.872;16.384;2023-04-24T06:22:52;4.53;;;2.05;;
55469;SDS011;41334;47.872;16.384;2023-04-24T06:27:55;3.30;;;1.60;;
55469;SDS011;41334;47.872;16.384;2023-04-24T06:32:57;3.58;;;1.63;;
55469;SDS011;41334;47.872;16.384;2023-04-24T06:38:19;2.13;;;1.05;;
55469;SDS011;41334;47.872;16.384;2023-04-24T06:43:21;5.13;;;1.20;;
55469;SDS011;41334;47.872;16.384;2023-04-24T06:48:24;2.50;;;1.20;;
55469;SDS011;41334;47.872;16.384;2023-04-24T06:53:27;1.17;;;0.63;;
55469;SDS011;41334;47.872;16.384;2023-04-24T06:58:29;1.77;;;0.60;;
55469;SDS011;41334;47.872;16.384;2023-04-24T07:03:32;1.30;;;0.68;;
55469;SDS011;41334;47.872;16.384;2023-04-24T07:08:34;0.70;;;0.40;;
55469;SDS011;41334;47.872;16.384;2023-04-24T07:13:37;1.38;;;0.73;;
55469;SDS011;41334;47.872;16.384;2023-04-24T07:18:43;1.58;;;0.50;;
55469;SDS011;41334;47.872;16.384;2023-04-24T07:23:45;1.55;;;0.88;;
55469;SDS011;41334;47.872;16.384;2023-04-24T07:28:46;0.45;;;0.20;;
55469;SDS011;41334;47.872;16.384;2023-04-24T07:33:48;2.17;;;0.70;;
55469;SDS011;41334;47.872;16.384;2023-04-24T07:38:50;0.93;;;0.40;;
55469;SDS011;41334;47.872;16.384;2023-04-24T07:43:52;0.70;;;0.30;;
55469;SDS011;41334;47.872;16.384;2023-04-24T07:48:55;2.55;;;0.65;;
55469;SDS011;41334;47.872;16.384;2023-04-24T07:54:13;4.20;;;0.57;;
55469;SDS011;41334;47.872;16.384;2023-04-24T07:59:15;0.47;;;0.30;;
55469;SDS011;41334;47.872;16.384;2023-04-24T08:04:17;0.50;;;0.30;;
55469;SDS011;41334;47.872;16.384;2023-04-24T08:09:20;2.25;;;0.40;;
55469;SDS011;41334;47.872;16.384;2023-04-24T08:14:21;3.13;;;0.40;;
55469;SDS011;41334;47.872;16.384;2023-04-24T08:19:23;0.90;;;0.20;;
55469;SDS011;41334;47.872;16.384;2023-04-24T08:24:25;0.60;;;0.30;;
55469;SDS011;41334;47.872;16.384;2023-04-24T08:29:26;0.30;;;0.10;;
55469;SDS011;41334;47.872;16.384;2023-04-24T08:34:28;4.00;;;0.55;;
55469;SDS011;41334;47.872;16.384;2023-04-24T08:39:30;0.80;;;0.25;;
55469;SDS011;41334;47.872;16.384;2023-04-24T08:44:32;0.32;;;0.20;;
55469;SDS011;41334;47.872;16.384;2023-04-24T08:49:35;0.38;;;0.25;;
55469;SDS011;41334;47.872;16.384;2023-04-24T08:54:38;0.95;;;0.30;;
55469;SDS011;41334;47.872;16.384;2023-04-24T08:59:44;1.00;;;0.47;;
55469;SDS011;41334;47.872;16.384;2023-04-24T09:04:48;0.60;;;0.30;;
55469;SDS011;41334;47.872;16.384;2023-04-24T09:09:51;1.25;;;0.35;;
55469;SDS011;41334;47.872;16.384;2023-04-24T09:14:54;0.20;;;0.10;;
55469;SDS011;41334;47.872;16.384;2023-04-24T09:19:56;0.22;;;0.10;;
55469;SDS011;41334;47.872;16.384;2023-04-24T09:25:02;0.63;;;0.28;;
55469;SDS011;41334;47.872;16.384;2023-04-24T09:30:08;3.83;;;0.20;;
55469;SDS011;41334;47.872;16.384;2023-04-24T09:35:11;0.10;;;0.10;;
55469;SDS011;41334;47.872;16.384;2023-04-24T09:45:16;4.72;;;0.20;;
55469;SDS011;41334;47.872;16.384;2023-04-24T09:50:18;0.57;;;0.25;;
55469;SDS011;41334;47.872;16.384;2023-04-24T09:55:21;0.50;;;0.20;;
55469;SDS011;41334;47.872;16.384;2023-04-24T10:00:27;0.10;;;0.00;;
55469;SDS011;41334;47.872;16.384;2023-04-24T10:05:37;0.65;;;0.20;;
55469;SDS011;41334;47.872;16.384;2023-04-24T10:10:41;0.82;;;0.32;;
55469;SDS011;41334;47.872;16.384;2023-04-24T10:15:44;0.77;;;0.35;;
55469;SDS011;41334;47.872;16.384;2023-04-24T10:20:49;1.10;;;0.57;;
55469;SDS011;41334;47.872;16.384;2023-04-24T10:25:51;0.50;;;0.30;;
55469;SDS011;41334;47.872;16.384;2023-04-24T10:30:54;0.40;;;0.20;;
55469;SDS011;41334;47.872;16.384;2023-04-24T10:35:56;0.47;;;0.20;;
55469;SDS011;41334;47.872;16.384;2023-04-24T10:41:10;1.02;;;0.47;;
55469;SDS011;41334;47.872;16.384;2023-04-24T10:46:24;0.47;;;0.10;;
55469;SDS011;41334;47.872;16.384;2023-04-24T10:51:46;0.20;;;0.17;;
55469;SDS011;41334;47.872;16.384;2023-04-24T10:56:50;0.00;;;0.00;;
55469;SDS011;41334;47.872;16.384;2023-04-24T11:01:53;0.10;;;0.00;;
55469;SDS011;41334;47.872;16.384;2023-04-24T11:06:56;5.57;;;0.52;;
55469;SDS011;41334;47.872;16.384;2023-04-24T11:12:17;1.55;;;0.20;;
55469;SDS011;41334;47.872;16.384;2023-04-24T11:17:33;0.00;;;0.00;;
55469;SDS011;41334;47.872;16.384;2023-04-24T11:22:39;0.20;;;0.10;;
55469;SDS011;41334;47.872;16.384;2023-04-24T11:27:42;0.10;;;0.08;;
55469;SDS011;41334;47.872;16.384;2023-04-24T11:32:48;0.57;;;0.43;;
55469;SDS011;41334;47.872;16.384;2023-04-24T11:37:52;0.13;;;0.10;;
55469;SDS011;41334;47.872;16.384;2023-04-24T11:42:59;0.50;;;0.20;;
55469;SDS011;41334;47.872;16.384;2023-04-24T11:48:02;0.47;;;0.22;;
55469;SDS011;41334;47.872;16.384;2023-04-24T11:53:05;0.75;;;0.17;;
55469;SDS011;41334;47.872;16.384;2023-04-24T11:58:07;0.13;;;0.10;;
55469;SDS011;41334;47.872;16.384;2023-04-24T12:03:11;0.10;;;0.10;;
55469;SDS011;41334;47.872;16.384;2023-04-24T12:08:27;1.08;;;0.40;;
55469;SDS011;41334;47.872;16.384;2023-04-24T12:13:30;0.90;;;0.20;;
55469;SDS011;41334;47.872;16.384;2023-04-24T12:18:31;0.57;;;0.28;;
55469;SDS011;41334;47.872;16.384;2023-04-24T12:23:34;0.50;;;0.13;;
55469;SDS011;41334;47.872;16.384;2023-04-24T12:28:39;0.38;;;0.20;;
55469;SDS011;41334;47.872;16.384;2023-04-24T12:33:41;0.60;;;0.20;;
55469;SDS011;41334;47.872;16.384;2023-04-24T12:38:44;0.20;;;0.10;;
55469;SDS011;41334;47.872;16.384;2023-04-24T12:43:53;0.15;;;0.08;;
55469;SDS011;41334;47.872;16.384;2023-04-24T12:48:56;0.75;;;0.30;;
55469;SDS011;41334;47.872;16.384;2023-04-24T12:54:01;0.10;;;0.10;;
55469;SDS011;41334;47.872;16.384;2023-04-24T12:59:03;1.23;;;0.32;;
55469;SDS011;41334;47.872;16.384;2023-04-24T13:04:05;0.20;;;0.10;;
55469;SDS011;41334;47.872;16.384;2023-04-24T13:09:07;0.10;;;0.05;;
55469;SDS011;41334;47.872;16.384;2023-04-24T13:14:09;0.77;;;0.10;;
55469;SDS011;41334;47.872;16.384;2023-04-24T13:19:11;0.68;;;0.40;;
55469;SDS011;41334;47.872;16.384;2023-04-24T13:24:13;0.60;;;0.28;;
55469;SDS011;41334;47.872;16.384;2023-04-24T13:29:14;0.00;;;0.00;;
55469;SDS011;41334;47.872;16.384;2023-04-24T13:34:17;0.05;;;0.00;;
55469;SDS011;41334;47.872;16.384;2023-04-24T13:39:19;0.43;;;0.20;;
55469;SDS011;41334;47.872;16.384;2023-04-24T13:44:21;0.28;;;0.10;;
55469;SDS011;41334;47.872;16.384;2023-04-24T13:49:24;0.10;;;0.10;;
55469;SDS011;41334;47.872;16.384;2023-04-24T13:54:26;0.70;;;0.17;;
55469;SDS011;41334;47.872;16.384;2023-04-24T13:59:28;0.35;;;0.20;;
55469;SDS011;41334;47.872;16.384;2023-04-24T14:04:30;0.60;;;0.13;;
55469;SDS011;41334;47.872;16.384;2023-04-24T14:09:32;1.00;;;0.70;;
55469;SDS011;41334;47.872;16.384;2023-04-24T14:14:34;0.35;;;0.17;;
55469;SDS011;41334;47.872;16.384;2023-04-24T14:19:36;0.13;;;0.10;;
55469;SDS011;41334;47.872;16.384;2023-04-24T14:24:37;0.73;;;0.30;;
55469;SDS011;41334;47.872;16.384;2023-04-24T14:29:39;0.10;;;0.10;;
55469;SDS011;41334;47.872;16.384;2023-04-24T14:34:41;1.33;;;0.50;;
55469;SDS011;41334;47.872;16.384;2023-04-24T14:39:43;0.03;;;0.00;;
55469;SDS011;41334;47.872;16.384;2023-04-24T14:44:56;0.35;;;0.20;;
55469;SDS011;41334;47.872;16.384;2023-04-24T14:49:58;2.13;;;0.30;;
55469;SDS011;41334;47.872;16.384;2023-04-24T14:55:01;2.15;;;0.15;;
55469;SDS011;41334;47.872;16.384;2023-04-24T15:00:03;0.60;;;0.30;;
55469;SDS011;41334;47.872;16.384;2023-04-24T15:05:07;0.70;;;0.20;;
55469;SDS011;41334;47.872;16.384;2023-04-24T15:10:10;0.32;;;0.17;;
55469;SDS011;41334;47.872;16.384;2023-04-24T15:15:12;0.40;;;0.20;;
55469;SDS011;41334;47.872;16.384;2023-04-24T15:20:14;1.38;;;0.30;;
55469;SDS011;41334;47.872;16.384;2023-04-24T15:25:16;0.30;;;0.20;;
55469;SDS011;41334;47.872;16.384;2023-04-24T15:30:17;1.58;;;0.28;;
55469;SDS011;41334;47.872;16.384;2023-04-24T15:35:20;1.10;;;0.15;;
55469;SDS011;41334;47.872;16.384;2023-04-24T15:40:22;0.68;;;0.15;;
55469;SDS011;41334;47.872;16.384;2023-04-24T15:45:24;0.35;;;0.13;;
55469;SDS011;41334;47.872;16.384;2023-04-24T15:50:26;0.55;;;0.10;;
55469;SDS011;41334;47.872;16.384;2023-04-24T15:55:28;0.17;;;0.05;;
55469;SDS011;41334;47.872;16.384;2023-04-24T16:00:30;0.28;;;0.25;;
55469;SDS011;41334;47.872;16.384;2023-04-24T16:05:34;0.50;;;0.20;;
55469;SDS011;41334;47.872;16.384;2023-04-24T16:10:36;0.20;;;0.10;;
55469;SDS011;41334;47.872;16.384;2023-04-24T16:15:38;0.08;;;0.08;;
55469;SDS011;41334;47.872;16.384;2023-04-24T16:20:40;0.10;;;0.10;;
55469;SDS011;41334;47.872;16.384;2023-04-24T16:25:42;0.10;;;0.05;;
55469;SDS011;41334;47.872;16.384;2023-04-24T16:30:44;0.95;;;0.30;;
55469;SDS011;41334;47.872;16.384;2023-04-24T16:35:46;0.98;;;0.20;;
55469;SDS011;41334;47.872;16.384;2023-04-24T16:40:47;0.10;;;0.03;;
55469;SDS011;41334;47.872;16.384;2023-04-24T16:45:50;1.35;;;0.75;;
55469;SDS011;41334;47.872;16.384;2023-04-24T16:50:52;0.57;;;0.30;;
55469;SDS011;41334;47.872;16.384;2023-04-24T16:55:54;0.10;;;0.00;;
55469;SDS011;41334;47.872;16.384;2023-04-24T17:00:56;1.10;;;0.30;;
55469;SDS011;41334;47.872;16.384;2023-04-24T17:05:58;0.65;;;0.08;;
55469;SDS011;41334;47.872;16.384;2023-04-24T17:11:01;0.25;;;0.10;;
55469;SDS011;41334;47.872;16.384;2023-04-24T17:16:02;0.47;;;0.22;;
55469;SDS011;41334;47.872;16.384;2023-04-24T17:21:04;1.95;;;0.35;;
55469;SDS011;41334;47.872;16.384;2023-04-24T17:26:06;2.78;;;0.40;;
55469;SDS011;41334;47.872;16.384;2023-04-24T17:31:12;1.10;;;0.20;;
55469;SDS011;41334;47.872;16.384;2023-04-24T17:36:16;0.80;;;0.28;;
55469;SDS011;41334;47.872;16.384;2023-04-24T17:41:18;0.80;;;0.40;;
55469;SDS011;41334;47.872;16.384;2023-04-24T17:46:20;0.52;;;0.32;;
55469;SDS011;41334;47.872;16.384;2023-04-24T17:51:22;0.10;;;0.10;;
55469;SDS011;41334;47.872;16.384;2023-04-24T17:56:24;0.95;;;0.45;;
55469;SDS011;41334;47.872;16.384;2023-04-24T18:01:26;0.80;;;0.38;;
55469;SDS011;41334;47.872;16.384;2023-04-24T18:06:29;2.58;;;0.40;;
55469;SDS011;41334;47.872;16.384;2023-04-24T18:11:31;0.55;;;0.25;;
55469;SDS011;41334;47.872;16.384;2023-04-24T18:16:32;0.03;;;0.03;;
55469;SDS011;41334;47.872;16.384;2023-04-24T18:21:34;0.90;;;0.30;;
55469;SDS011;41334;47.872;16.384;2023-04-24T18:26:36;0.73;;;0.40;;
55469;SDS011;41334;47.872;16.384;2023-04-24T18:31:38;0.73;;;0.38;;
55469;SDS011;41334;47.872;16.384;2023-04-24T18:36:40;0.35;;;0.28;;
55469;SDS011;41334;47.872;16.384;2023-04-24T18:41:41;1.20;;;0.45;;
55469;SDS011;41334;47.872;16.384;2023-04-24T18:46:43;0.70;;;0.40;;
55469;SDS011;41334;47.872;16.384;2023-04-24T18:51:45;0.82;;;0.35;;
55469;SDS011;41334;47.872;16.384;2023-04-24T18:56:55;0.63;;;0.28;;
55469;SDS011;41334;47.872;16.384;2023-04-24T19:01:57;0.30;;;0.17;;
55469;SDS011;41334;47.872;16.384;2023-04-24T19:07:01;0.10;;;0.05;;
55469;SDS011;41334;47.872;16.384;2023-04-24T19:12:03;0.10;;;0.00;;
55469;SDS011;41334;47.872;16.384;2023-04-24T19:17:06;1.75;;;0.50;;
55469;SDS011;41334;47.872;16.384;2023-04-24T19:22:10;0.38;;;0.25;;
55469;SDS011;41334;47.872;16.384;2023-04-24T19:27:12;0.40;;;0.22;;
55469;SDS011;41334;47.872;16.384;2023-04-24T19:32:14;0.45;;;0.20;;
55469;SDS011;41334;47.872;16.384;2023-04-24T19:37:16;0.60;;;0.25;;
55469;SDS011;41334;47.872;16.384;2023-04-24T19:42:17;0.80;;;0.40;;
55469;SDS011;41334;47.872;16.384;2023-04-24T19:47:32;0.50;;;0.28;;
55469;SDS011;41334;47.872;16.384;2023-04-24T19:52:34;0.43;;;0.10;;
55469;SDS011;41334;47.872;16.384;2023-04-24T19:57:36;5.15;;;0.43;;
55469;SDS011;41334;47.872;16.384;2023-04-24T20:02:38;0.77;;;0.35;;
55469;SDS011;41334;47.872;16.384;2023-04-24T20:07:39;0.60;;;0.32;;
55469;SDS011;41334;47.872;16.384;2023-04-24T20:12:41;0.63;;;0.32;;
55469;SDS011;41334;47.872;16.384;2023-04-24T20:17:43;1.13;;;0.40;;
55469;SDS011;41334;47.872;16.384;2023-04-24T20:22:45;0.50;;;0.25;;
55469;SDS011;41334;47.872;16.384;2023-04-24T20:27:47;0.88;;;0.38;;
55469;SDS011;41334;47.872;16.384;2023-04-24T20:32:48;0.63;;;0.25;;
55469;SDS011;41334;47.872;16.384;2023-04-24T20:37:51;1.10;;;0.40;;
55469;SDS011;41334;47.872;16.384;2023-04-24T20:42:54;1.75;;;0.68;;
55469;SDS011;41334;47.872;16.384;2023-04-24T20:47:58;0.52;;;0.15;;
55469;SDS011;41334;47.872;16.384;2023-04-24T20:52:59;0.68;;;0.32;;
55469;SDS011;41334;47.872;16.384;2023-04-24T20:58:03;1.27;;;0.52;;
55469;SDS011;41334;47.872;16.384;2023-04-24T21:03:05;0.80;;;0.40;;
55469;SDS011;41334;47.872;16.384;2023-04-24T21:08:07;0.52;;;0.30;;
55469;SDS011;41334;47.872;16.384;2023-04-24T21:13:09;0.68;;;0.30;;
55469;SDS011;41334;47.872;16.384;2023-04-24T21:18:10;0.52;;;0.22;;
55469;SDS011;41334;47.872;16.384;2023-04-24T21:23:12;0.15;;;0.10;;
55469;SDS011;41334;47.872;16.384;2023-04-24T21:28:14;0.45;;;0.25;;
55469;SDS011;41334;47.872;16.384;2023-04-24T21:33:16;0.60;;;0.30;;
55469;SDS011;41334;47.872;16.384;2023-04-24T21:38:19;0.70;;;0.38;;
55469;SDS011;41334;47.872;16.384;2023-04-24T21:43:24;1.67;;;0.47;;
55469;SDS011;41334;47.872;16.384;2023-04-24T21:48:37;0.45;;;0.20;;
55469;SDS011;41334;47.872;16.384;2023-04-24T21:53:39;2.53;;;0.60;;
55469;SDS011;41334;47.872;16.384;2023-04-24T21:58:41;0.70;;;0.35;;
55469;SDS011;41334;47.872;16.384;2023-04-24T22:03:44;0.88;;;0.40;;
55469;SDS011;41334;47.872;16.384;2023-04-24T22:08:46;0.50;;;0.22;;
55469;SDS011;41334;47.872;16.384;2023-04-24T22:14:06;1.40;;;0.68;;
55469;SDS011;41334;47.872;16.384;2023-04-24T22:19:08;0.65;;;0.45;;
55469;SDS011;41334;47.872;16.384;2023-04-24T22:24:10;1.13;;;0.20;;
55469;SDS011;41334;47.872;16.384;2023-04-24T22:29:12;1.38;;;0.63;;
55469;SDS011;41334;47.872;16.384;2023-04-24T22:34:14;0.90;;;0.50;;
55469;SDS011;41334;47.872;16.384;2023-04-24T22:39:17;0.35;;;0.20;;
55469;SDS011;41334;47.872;16.384;2023-04-24T22:44:20;1.48;;;0.50;;
55469;SDS011;41334;47.872;16.384;2023-04-24T22:49:22;0.43;;;0.15;;
55469;SDS011;41334;47.872;16.384;2023-04-24T22:54:23;0.00;;;0.00;;
55469;SDS011;41334;47.872;16.384;2023-04-24T22:59:25;0.85;;;0.47;;
55469;SDS011;41334;47.872;16.384;2023-04-24T23:04:27;0.85;;;0.43;;
55469;SDS011;41334;47.872;16.384;2023-04-24T23:09:29;1.02;;;0.57;;
55469;SDS011;41334;47.872;16.384;2023-04-24T23:14:31;0.80;;;0.35;;
55469;SDS011;41334;47.872;16.384;2023-04-24T23:19:34;1.70;;;0.30;;
55469;SDS011;41334;47.872;16.384;2023-04-24T23:24:36;0.47;;;0.20;;
55469;SDS011;41334;47.872;16.384;2023-04-24T23:29:38;0.05;;;0.05;;
55469;SDS011;41334;47.872;16.384;2023-04-24T23:34:39;0.40;;;0.30;;
55469;SDS011;41334;47.872;16.384;2023-04-24T23:39:41;0.47;;;0.25;;
55469;SDS011;41334;47.872;16.384;2023-04-24T23:44:43;0.90;;;0.47;;
55469;SDS011;41334;47.872;16.384;2023-04-24T23:49:45;1.38;;;0.40;;
55469;SDS011;41334;47.872;16.384;2023-04-24T23:54:47;0.20;;;0.20;;
55469;SDS011;41334;47.872;16.384;2023-04-24T23:59:49;0.75;;;0.30;;
